Accueil
METAR-TAF:

METAR-TAF

Aéroports :

Wiesbaden, Allemagne

Lucius D. Clay Kaserne

latitude: 50-03N, longitude: 008-20E, altitude: 140 m

Observation

Le bulletin a été fait il y a 1 heure et 2 minutes, à 05:59 UTC
Vent 4 kt de direction variable
Température 20°C
Humidité 68%
Pression 1016 hPa
Visibilité 10 km ou plus
Nuages épars à une hauteur de 3000 ft
Nuages fragmentés à une hauteur de 20000 ft

METAR: ETOU 230559Z VRB04KT 9999 SCT030 BKN200 20/14 A2999 RMK A02A SLP151

Heure: 09:01 (07:01 UTC)

Prévision

Le bulletin a été fait il y a 3 heures et 53 minutes, à 03:08 UTC
Prévision valable du 23 à 03 UTC au 24 à 09 UTC
Vent 9 kt de ouest
Visibilité 10 km ou plus
Nuages épars à une hauteur de 5000 ft
Temporairement
du 23 à 13 UTC au 23 à 16 UTC
Vent 10 kt de ouest avec des rafales jusqu'à 15 kt

TAF: ETOU 230308Z 2303/2409 28009KT 9999 SCT050 QNH2990INS TEMPO 2313/2316 28010G15KT TX27/2316Z TN13/2403Z

Observations et prévisions météorologiques de plus de 4000 aéroports (messages METAR et TAF).

Les stations disponibles sont représentées par des disques jaunes et rouges sur la carte.

Passer la souris dessus pour voir le nom de la station.

Cliquer dessus pour voir les observations et prévisions météorologiques.

Pour changer de carte: cliquez sur les boutons verts avec une croix noire pour zoomer, sur le bouton vert avec un tiret pour effectuer un zoom arrière, ou sur les flèches vertes pour les cartes adjacentes.


METAR-TAF: